Terminal Aerodrome Forecast
Issued by NWS

Home | Current Version | Previous Version | Text Only | Print | Product List | Glossary On
Versions: 1 2 3 4 5 6 7 8 9 10 11 12
000
FTUS44 KJAN 290520
TAFGTR
TAF
KGTR 290520Z 2906/3006 13008KT P6SM BKN070
     FM291900 17013G19KT P6SM SCT050 SCT250
     FM300000 16009KT P6SM BKN050=

USA.gov is the U.S. government's official web portal to all federal, state and local government web resources and services.